sensor_id;sensor_type;location;lat;lon;timestamp;pressure;altitude;pressure_sealevel;temperature
27986;BMP280;15453;53.692;10.168;2023-08-07T00:01:24;100116.28;;;20.30
27986;BMP280;15453;53.692;10.168;2023-08-07T00:03:50;100118.56;;;20.28
27986;BMP280;15453;53.692;10.168;2023-08-07T00:06:15;100114.97;;;20.27
27986;BMP280;15453;53.692;10.168;2023-08-07T00:08:40;100114.97;;;20.27
27986;BMP280;15453;53.692;10.168;2023-08-07T00:11:09;100114.97;;;20.27
27986;BMP280;15453;53.692;10.168;2023-08-07T00:13:35;100110.84;;;20.25
27986;BMP280;15453;53.692;10.168;2023-08-07T00:16:01;100103.19;;;20.22
27986;BMP280;15453;53.692;10.168;2023-08-07T00:18:27;100096.47;;;20.23
27986;BMP280;15453;53.692;10.168;2023-08-07T00:20:52;100094.84;;;20.22
27986;BMP280;15453;53.692;10.168;2023-08-07T00:23:17;100095.19;;;20.20
27986;BMP280;15453;53.692;10.168;2023-08-07T00:25:42;100097.13;;;20.20
27986;BMP280;15453;53.692;10.168;2023-08-07T00:28:07;100100.59;;;20.17
27986;BMP280;15453;53.692;10.168;2023-08-07T00:30:33;100096.97;;;20.16
27986;BMP280;15453;53.692;10.168;2023-08-07T00:32:58;100105.00;;;20.18
27986;BMP280;15453;53.692;10.168;2023-08-07T00:35:23;100108.94;;;20.17
27986;BMP280;15453;53.692;10.168;2023-08-07T00:37:48;100108.94;;;20.17
27986;BMP280;15453;53.692;10.168;2023-08-07T00:40:14;100099.59;;;20.13
27986;BMP280;15453;53.692;10.168;2023-08-07T00:42:39;100094.38;;;20.11
27986;BMP280;15453;53.692;10.168;2023-08-07T00:45:05;100097.94;;;20.12
27986;BMP280;15453;53.692;10.168;2023-08-07T00:47:30;100095.53;;;20.10
27986;BMP280;15453;53.692;10.168;2023-08-07T00:49:57;100096.94;;;20.08
27986;BMP280;15453;53.692;10.168;2023-08-07T00:52:23;100096.94;;;20.08
27986;BMP280;15453;53.692;10.168;2023-08-07T00:54:49;100095.16;;;20.03
27986;BMP280;15453;53.692;10.168;2023-08-07T00:57:15;100090.75;;;20.02
27986;BMP280;15453;53.692;10.168;2023-08-07T00:59:41;100092.19;;;20.00
27986;BMP280;15453;53.692;10.168;2023-08-07T01:02:07;100095.31;;;19.98
27986;BMP280;15453;53.692;10.168;2023-08-07T01:04:32;100096.44;;;19.97
27986;BMP280;15453;53.692;10.168;2023-08-07T01:06:58;100091.25;;;19.96
27986;BMP280;15453;53.692;10.168;2023-08-07T01:09:23;100096.81;;;19.96
27986;BMP280;15453;53.692;10.168;2023-08-07T01:15:12;100103.78;;;19.93
27986;BMP280;15453;53.692;10.168;2023-08-07T01:17:38;100086.81;;;19.86
27986;BMP280;15453;53.692;10.168;2023-08-07T01:20:04;100086.50;;;19.88
27986;BMP280;15453;53.692;10.168;2023-08-07T01:22:30;100085.66;;;19.87
27986;BMP280;15453;53.692;10.168;2023-08-07T01:24:55;100088.44;;;19.87
27986;BMP280;15453;53.692;10.168;2023-08-07T01:27:37;100079.94;;;19.84
27986;BMP280;15453;53.692;10.168;2023-08-07T01:30:22;100071.94;;;19.82
27986;BMP280;15453;53.692;10.168;2023-08-07T01:33:10;100073.41;;;19.80
27986;BMP280;15453;53.692;10.168;2023-08-07T01:35:43;100072.44;;;19.76
27986;BMP280;15453;53.692;10.168;2023-08-07T01:38:08;100076.00;;;19.76
27986;BMP280;15453;53.692;10.168;2023-08-07T01:40:37;100067.19;;;19.74
27986;BMP280;15453;53.692;10.168;2023-08-07T01:43:03;100073.91;;;19.73
27986;BMP280;15453;53.692;10.168;2023-08-07T01:45:29;100068.66;;;19.72
27986;BMP280;15453;53.692;10.168;2023-08-07T01:47:54;100064.56;;;19.69
27986;BMP280;15453;53.692;10.168;2023-08-07T01:50:21;100066.53;;;19.69
27986;BMP280;15453;53.692;10.168;2023-08-07T01:52:46;100071.25;;;19.68
27986;BMP280;15453;53.692;10.168;2023-08-07T01:55:13;100071.25;;;19.68
27986;BMP280;15453;53.692;10.168;2023-08-07T01:57:38;100065.53;;;19.65
27986;BMP280;15453;53.692;10.168;2023-08-07T02:00:04;100065.53;;;19.65
27986;BMP280;15453;53.692;10.168;2023-08-07T02:02:30;100065.38;;;19.61
27986;BMP280;15453;53.692;10.168;2023-08-07T02:04:55;100067.34;;;19.61
27986;BMP280;15453;53.692;10.168;2023-08-07T02:07:20;100069.63;;;19.59
27986;BMP280;15453;53.692;10.168;2023-08-07T02:09:46;100071.91;;;19.57
27986;BMP280;15453;53.692;10.168;2023-08-07T02:12:11;100073.03;;;19.56
27986;BMP280;15453;53.692;10.168;2023-08-07T02:14:36;100068.97;;;19.53
27986;BMP280;15453;53.692;10.168;2023-08-07T02:17:02;100068.13;;;19.53
27986;BMP280;15453;53.692;10.168;2023-08-07T02:19:27;100065.69;;;19.51
27986;BMP280;15453;53.692;10.168;2023-08-07T02:21:53;100068.78;;;19.50
27986;BMP280;15453;53.692;10.168;2023-08-07T02:24:18;100068.78;;;19.50
27986;BMP280;15453;53.692;10.168;2023-08-07T02:26:44;100070.25;;;19.47
27986;BMP280;15453;53.692;10.168;2023-08-07T02:29:09;100070.25;;;19.47
27986;BMP280;15453;53.692;10.168;2023-08-07T02:31:35;100059.81;;;19.44
27986;BMP280;15453;53.692;10.168;2023-08-07T02:34:00;100060.13;;;19.43
27986;BMP280;15453;53.692;10.168;2023-08-07T02:36:26;100058.50;;;19.42
27986;BMP280;15453;53.692;10.168;2023-08-07T02:38:51;100062.38;;;19.41
27986;BMP280;15453;53.692;10.168;2023-08-07T02:41:16;100065.16;;;19.41
27986;BMP280;15453;53.692;10.168;2023-08-07T02:43:42;100064.69;;;19.39
27986;BMP280;15453;53.692;10.168;2023-08-07T02:46:08;100061.91;;;19.39
27986;BMP280;15453;53.692;10.168;2023-08-07T02:48:33;100071.38;;;19.38
27986;BMP280;15453;53.692;10.168;2023-08-07T02:50:58;100062.56;;;19.36
27986;BMP280;15453;53.692;10.168;2023-08-07T02:53:23;100065.31;;;19.36
27986;BMP280;15453;53.692;10.168;2023-08-07T02:55:48;100059.28;;;19.34
27986;BMP280;15453;53.692;10.168;2023-08-07T02:58:14;100066.78;;;19.33
27986;BMP280;15453;53.692;10.168;2023-08-07T03:00:39;100069.09;;;19.31
27986;BMP280;15453;53.692;10.168;2023-08-07T03:03:04;100069.88;;;19.32
27986;BMP280;15453;53.692;10.168;2023-08-07T03:05:29;100059.41;;;19.29
27986;BMP280;15453;53.692;10.168;2023-08-07T03:07:55;100058.94;;;19.27
27986;BMP280;15453;53.692;10.168;2023-08-07T03:10:20;100068.41;;;19.26
27986;BMP280;15453;53.692;10.168;2023-08-07T03:12:45;100068.91;;;19.28
27986;BMP280;15453;53.692;10.168;2023-08-07T03:15:11;100068.91;;;19.28
27986;BMP280;15453;53.692;10.168;2023-08-07T03:17:36;100064.81;;;19.25
27986;BMP280;15453;53.692;10.168;2023-08-07T03:20:02;100064.81;;;19.25
27986;BMP280;15453;53.692;10.168;2023-08-07T03:22:29;100059.06;;;19.22
27986;BMP280;15453;53.692;10.168;2023-08-07T03:24:54;100071.50;;;19.24
27986;BMP280;15453;53.692;10.168;2023-08-07T03:27:19;100071.50;;;19.24
27986;BMP280;15453;53.692;10.168;2023-08-07T03:29:44;100059.38;;;19.20
27986;BMP280;15453;53.692;10.168;2023-08-07T03:32:10;100062.16;;;19.20
27986;BMP280;15453;53.692;10.168;2023-08-07T03:34:36;100057.44;;;19.21
27986;BMP280;15453;53.692;10.168;2023-08-07T03:37:01;100059.38;;;19.20
27986;BMP280;15453;53.692;10.168;2023-08-07T03:39:27;100053.81;;;19.20
27986;BMP280;15453;53.692;10.168;2023-08-07T03:41:52;100063.31;;;19.19
27986;BMP280;15453;53.692;10.168;2023-08-07T03:44:17;100060.84;;;19.18
27986;BMP280;15453;53.692;10.168;2023-08-07T03:46:42;100055.28;;;19.18
27986;BMP280;15453;53.692;10.168;2023-08-07T03:49:08;100062.47;;;19.19
27986;BMP280;15453;53.692;10.168;2023-08-07T03:51:33;100062.47;;;19.19
27986;BMP280;15453;53.692;10.168;2023-08-07T03:53:58;100054.00;;;19.15
27986;BMP280;15453;53.692;10.168;2023-08-07T03:56:23;100052.31;;;19.14
27986;BMP280;15453;53.692;10.168;2023-08-07T03:58:49;100058.72;;;19.15
27986;BMP280;15453;53.692;10.168;2023-08-07T04:01:15;100053.47;;;19.13
27986;BMP280;15453;53.692;10.168;2023-08-07T04:03:41;100055.09;;;19.14
27986;BMP280;15453;53.692;10.168;2023-08-07T04:06:06;100062.63;;;19.14
27986;BMP280;15453;53.692;10.168;2023-08-07T04:08:31;100049.91;;;19.13
27986;BMP280;15453;53.692;10.168;2023-08-07T04:11:04;100045.16;;;19.13
27986;BMP280;15453;53.692;10.168;2023-08-07T04:13:30;100047.91;;;19.13
27986;BMP280;15453;53.692;10.168;2023-08-07T04:15:56;100040.44;;;19.14
27986;BMP280;15453;53.692;10.168;2023-08-07T04:18:22;100048.44;;;19.15
27986;BMP280;15453;53.692;10.168;2023-08-07T04:20:52;100044.50;;;19.16
27986;BMP280;15453;53.692;10.168;2023-08-07T04:23:17;100040.91;;;19.16
27986;BMP280;15453;53.692;10.168;2023-08-07T04:25:43;100035.34;;;19.16
27986;BMP280;15453;53.692;10.168;2023-08-07T04:28:11;100036.19;;;19.16
27986;BMP280;15453;53.692;10.168;2023-08-07T04:30:36;100044.69;;;19.20
27986;BMP280;15453;53.692;10.168;2023-08-07T04:33:02;100044.69;;;19.20
27986;BMP280;15453;53.692;10.168;2023-08-07T04:35:27;100033.41;;;19.16
27986;BMP280;15453;53.692;10.168;2023-08-07T04:37:53;100050.53;;;19.18
27986;BMP280;15453;53.692;10.168;2023-08-07T04:40:18;100044.19;;;19.18
27986;BMP280;15453;53.692;10.168;2023-08-07T04:42:43;100052.19;;;19.19
27986;BMP280;15453;53.692;10.168;2023-08-07T04:45:09;100054.66;;;19.21
27986;BMP280;15453;53.692;10.168;2023-08-07T04:47:34;100054.97;;;19.19
27986;BMP280;15453;53.692;10.168;2023-08-07T04:50:00;100045.50;;;19.20
27986;BMP280;15453;53.692;10.168;2023-08-07T04:52:25;100052.19;;;19.19
27986;BMP280;15453;53.692;10.168;2023-08-07T04:54:50;100053.50;;;19.22
27986;BMP280;15453;53.692;10.168;2023-08-07T04:57:15;100048.28;;;19.20
27986;BMP280;15453;53.692;10.168;2023-08-07T04:59:40;100044.91;;;19.23
27986;BMP280;15453;53.692;10.168;2023-08-07T05:02:06;100054.84;;;19.24
27986;BMP280;15453;53.692;10.168;2023-08-07T05:04:31;100058.09;;;19.26
27986;BMP280;15453;53.692;10.168;2023-08-07T05:06:56;100059.78;;;19.27
27986;BMP280;15453;53.692;10.168;2023-08-07T05:09:21;100056.31;;;19.30
27986;BMP280;15453;53.692;10.168;2023-08-07T05:11:47;100046.03;;;19.31
27986;BMP280;15453;53.692;10.168;2023-08-07T05:14:16;100044.59;;;19.33
27986;BMP280;15453;53.692;10.168;2023-08-07T05:16:41;100046.03;;;19.39
27986;BMP280;15453;53.692;10.168;2023-08-07T05:19:07;100046.03;;;19.39
27986;BMP280;15453;53.692;10.168;2023-08-07T05:21:32;100046.41;;;19.38
27986;BMP280;15453;53.692;10.168;2023-08-07T05:23:57;100047.72;;;19.40
27986;BMP280;15453;53.692;10.168;2023-08-07T05:26:22;100049.81;;;19.43
27986;BMP280;15453;53.692;10.168;2023-08-07T05:28:48;100045.59;;;19.46
27986;BMP280;15453;53.692;10.168;2023-08-07T05:31:13;100048.53;;;19.49
27986;BMP280;15453;53.692;10.168;2023-08-07T05:33:38;100061.78;;;19.52
27986;BMP280;15453;53.692;10.168;2023-08-07T05:36:04;100061.78;;;19.52
27986;BMP280;15453;53.692;10.168;2023-08-07T05:38:31;100056.22;;;19.52
27986;BMP280;15453;53.692;10.168;2023-08-07T05:40:56;100051.66;;;19.56
27986;BMP280;15453;53.692;10.168;2023-08-07T05:43:21;100050.19;;;19.59
27986;BMP280;15453;53.692;10.168;2023-08-07T05:45:47;100054.59;;;19.60
27986;BMP280;15453;53.692;10.168;2023-08-07T05:48:14;100051.16;;;19.63
27986;BMP280;15453;53.692;10.168;2023-08-07T05:50:39;100052.16;;;19.67
27986;BMP280;15453;53.692;10.168;2023-08-07T05:53:05;100053.78;;;19.68
27986;BMP280;15453;53.692;10.168;2023-08-07T05:55:31;100057.69;;;19.75
27986;BMP280;15453;53.692;10.168;2023-08-07T05:57:56;100057.69;;;19.75
27986;BMP280;15453;53.692;10.168;2023-08-07T06:00:21;100051.31;;;19.75
27986;BMP280;15453;53.692;10.168;2023-08-07T06:02:47;100059.00;;;19.78
27986;BMP280;15453;53.692;10.168;2023-08-07T06:05:12;100046.75;;;19.79
27986;BMP280;15453;53.692;10.168;2023-08-07T06:07:39;100050.84;;;19.81
27986;BMP280;15453;53.692;10.168;2023-08-07T06:10:06;100057.41;;;19.85
27986;BMP280;15453;53.692;10.168;2023-08-07T06:12:32;100059.03;;;19.86
27986;BMP280;15453;53.692;10.168;2023-08-07T06:14:57;100061.13;;;19.89
27986;BMP280;15453;53.692;10.168;2023-08-07T06:17:25;100057.56;;;19.89
27986;BMP280;15453;53.692;10.168;2023-08-07T06:19:52;100059.19;;;19.90
27986;BMP280;15453;53.692;10.168;2023-08-07T06:22:17;100060.47;;;19.92
27986;BMP280;15453;53.692;10.168;2023-08-07T06:24:42;100070.63;;;19.97
27986;BMP280;15453;53.692;10.168;2023-08-07T06:27:07;100066.84;;;20.01
27986;BMP280;15453;53.692;10.168;2023-08-07T06:29:33;100066.84;;;20.01
27986;BMP280;15453;53.692;10.168;2023-08-07T06:31:58;100068.66;;;19.97
27986;BMP280;15453;53.692;10.168;2023-08-07T06:34:23;100067.53;;;19.98
27986;BMP280;15453;53.692;10.168;2023-08-07T06:36:49;100059.16;;;20.07
27986;BMP280;15453;53.692;10.168;2023-08-07T06:39:14;100059.16;;;20.07
27986;BMP280;15453;53.692;10.168;2023-08-07T06:41:39;100058.38;;;20.06
27986;BMP280;15453;53.692;10.168;2023-08-07T06:44:05;100055.22;;;20.08
27986;BMP280;15453;53.692;10.168;2023-08-07T06:46:30;100066.06;;;20.09
27986;BMP280;15453;53.692;10.168;2023-08-07T06:48:55;100061.47;;;20.13
27986;BMP280;15453;53.692;10.168;2023-08-07T06:51:21;100081.28;;;20.20
27986;BMP280;15453;53.692;10.168;2023-08-07T06:53:46;100081.28;;;20.20
27986;BMP280;15453;53.692;10.168;2023-08-07T06:56:11;100066.53;;;20.20
27986;BMP280;15453;53.692;10.168;2023-08-07T06:58:36;100074.88;;;20.20
27986;BMP280;15453;53.692;10.168;2023-08-07T07:01:02;100069.50;;;20.23
27986;BMP280;15453;53.692;10.168;2023-08-07T07:03:27;100076.19;;;20.22
27986;BMP280;15453;53.692;10.168;2023-08-07T07:05:52;100060.00;;;20.24
27986;BMP280;15453;53.692;10.168;2023-08-07T07:08:17;100070.81;;;20.26
27986;BMP280;15453;53.692;10.168;2023-08-07T07:10:43;100070.94;;;20.29
27986;BMP280;15453;53.692;10.168;2023-08-07T07:13:08;100070.31;;;20.32
27986;BMP280;15453;53.692;10.168;2023-08-07T07:15:34;100072.75;;;20.34
27986;BMP280;15453;53.692;10.168;2023-08-07T07:18:01;100082.88;;;20.38
27986;BMP280;15453;53.692;10.168;2023-08-07T07:20:26;100072.06;;;20.37
27986;BMP280;15453;53.692;10.168;2023-08-07T07:22:52;100076.66;;;20.41
27986;BMP280;15453;53.692;10.168;2023-08-07T07:25:17;100076.47;;;20.46
27986;BMP280;15453;53.692;10.168;2023-08-07T07:27:42;100076.47;;;20.46
27986;BMP280;15453;53.692;10.168;2023-08-07T07:30:08;100067.34;;;20.46
27986;BMP280;15453;53.692;10.168;2023-08-07T07:32:33;100071.44;;;20.48
27986;BMP280;15453;53.692;10.168;2023-08-07T07:34:58;100075.19;;;20.52
27986;BMP280;15453;53.692;10.168;2023-08-07T07:37:24;100079.72;;;20.57
27986;BMP280;15453;53.692;10.168;2023-08-07T07:39:49;100079.06;;;20.60
27986;BMP280;15453;53.692;10.168;2023-08-07T07:42:14;100081.03;;;20.68
27986;BMP280;15453;53.692;10.168;2023-08-07T07:44:39;100081.03;;;20.68
27986;BMP280;15453;53.692;10.168;2023-08-07T07:47:05;100088.88;;;20.66
27986;BMP280;15453;53.692;10.168;2023-08-07T07:49:32;100096.41;;;20.65
27986;BMP280;15453;53.692;10.168;2023-08-07T07:51:59;100093.44;;;20.70
27986;BMP280;15453;53.692;10.168;2023-08-07T07:54:25;100093.44;;;20.70
27986;BMP280;15453;53.692;10.168;2023-08-07T07:56:50;100078.72;;;20.70
27986;BMP280;15453;53.692;10.168;2023-08-07T07:59:15;100084.78;;;20.72
27986;BMP280;15453;53.692;10.168;2023-08-07T08:01:41;100096.84;;;20.84
27986;BMP280;15453;53.692;10.168;2023-08-07T08:04:06;100096.84;;;20.84
27986;BMP280;15453;53.692;10.168;2023-08-07T08:06:31;100094.88;;;20.85
27986;BMP280;15453;53.692;10.168;2023-08-07T08:08:57;100105.34;;;20.88
27986;BMP280;15453;53.692;10.168;2023-08-07T08:11:22;100098.63;;;20.89
27986;BMP280;15453;53.692;10.168;2023-08-07T08:13:47;100113.06;;;20.91
27986;BMP280;15453;53.692;10.168;2023-08-07T08:16:13;100122.22;;;20.91
27986;BMP280;15453;53.692;10.168;2023-08-07T08:18:38;100109.44;;;20.90
27986;BMP280;15453;53.692;10.168;2023-08-07T08:21:03;100124.47;;;20.89
27986;BMP280;15453;53.692;10.168;2023-08-07T08:23:29;100133.84;;;20.85
27986;BMP280;15453;53.692;10.168;2023-08-07T08:25:54;100131.38;;;20.83
27986;BMP280;15453;53.692;10.168;2023-08-07T08:28:19;100142.84;;;20.82
27986;BMP280;15453;53.692;10.168;2023-08-07T08:30:44;100142.84;;;20.82
27986;BMP280;15453;53.692;10.168;2023-08-07T08:33:10;100131.72;;;20.82
27986;BMP280;15453;53.692;10.168;2023-08-07T08:35:38;100133.19;;;20.79
27986;BMP280;15453;53.692;10.168;2023-08-07T08:38:03;100136.13;;;20.83
27986;BMP280;15453;53.692;10.168;2023-08-07T08:40:30;100125.00;;;20.83
27986;BMP280;15453;53.692;10.168;2023-08-07T08:42:55;100139.88;;;20.87
27986;BMP280;15453;53.692;10.168;2023-08-07T08:45:25;100129.59;;;20.87
27986;BMP280;15453;53.692;10.168;2023-08-07T08:47:51;100140.06;;;20.90
27986;BMP280;15453;53.692;10.168;2023-08-07T08:50:20;100161.19;;;20.91
27986;BMP280;15453;53.692;10.168;2023-08-07T08:52:45;100151.38;;;20.94
27986;BMP280;15453;53.692;10.168;2023-08-07T08:55:12;100150.22;;;20.95
27986;BMP280;15453;53.692;10.168;2023-08-07T08:57:39;100165.44;;;20.97
27986;BMP280;15453;53.692;10.168;2023-08-07T09:00:06;100154.78;;;20.99
27986;BMP280;15453;53.692;10.168;2023-08-07T09:02:41;100168.56;;;20.96
27986;BMP280;15453;53.692;10.168;2023-08-07T09:05:07;100167.09;;;20.98
27986;BMP280;15453;53.692;10.168;2023-08-07T09:07:33;100170.00;;;21.02
27986;BMP280;15453;53.692;10.168;2023-08-07T09:09:59;100165.59;;;21.01
27986;BMP280;15453;53.692;10.168;2023-08-07T09:12:29;100168.38;;;21.01
27986;BMP280;15453;53.692;10.168;2023-08-07T09:14:56;100176.06;;;21.04
27986;BMP280;15453;53.692;10.168;2023-08-07T09:17:27;100163.78;;;21.05
27986;BMP280;15453;53.692;10.168;2023-08-07T09:19:54;100154.59;;;21.13
27986;BMP280;15453;53.692;10.168;2023-08-07T09:22:19;100154.59;;;21.13
27986;BMP280;15453;53.692;10.168;2023-08-07T09:24:45;100151.81;;;21.13
27986;BMP280;15453;53.692;10.168;2023-08-07T09:27:10;100153.09;;;21.15
27986;BMP280;15453;53.692;10.168;2023-08-07T09:29:36;100161.94;;;21.17
27986;BMP280;15453;53.692;10.168;2023-08-07T09:32:08;100169.97;;;21.19
27986;BMP280;15453;53.692;10.168;2023-08-07T09:34:34;100171.91;;;21.18
27986;BMP280;15453;53.692;10.168;2023-08-07T09:36:59;100194.69;;;21.20
27986;BMP280;15453;53.692;10.168;2023-08-07T09:39:24;100214.09;;;21.00
27986;BMP280;15453;53.692;10.168;2023-08-07T09:41:53;100198.34;;;20.87
27986;BMP280;15453;53.692;10.168;2023-08-07T09:44:18;100198.34;;;20.87
27986;BMP280;15453;53.692;10.168;2023-08-07T09:46:44;100198.53;;;20.65
27986;BMP280;15453;53.692;10.168;2023-08-07T09:49:10;100198.53;;;20.65
27986;BMP280;15453;53.692;10.168;2023-08-07T09:51:42;100200.19;;;20.57
27986;BMP280;15453;53.692;10.168;2023-08-07T09:54:08;100195.44;;;20.49
27986;BMP280;15453;53.692;10.168;2023-08-07T09:56:35;100179.91;;;20.48
27986;BMP280;15453;53.692;10.168;2023-08-07T09:59:00;100173.50;;;20.48
27986;BMP280;15453;53.692;10.168;2023-08-07T10:01:25;100175.16;;;20.49
27986;BMP280;15453;53.692;10.168;2023-08-07T10:03:51;100176.13;;;20.53
27986;BMP280;15453;53.692;10.168;2023-08-07T10:06:17;100185.28;;;20.62
27986;BMP280;15453;53.692;10.168;2023-08-07T10:08:45;100172.00;;;20.67
27986;BMP280;15453;53.692;10.168;2023-08-07T10:11:11;100173.16;;;20.75
27986;BMP280;15453;53.692;10.168;2023-08-07T10:13:37;100186.91;;;20.80
27986;BMP280;15453;53.692;10.168;2023-08-07T10:16:03;100184.09;;;20.88
27986;BMP280;15453;53.692;10.168;2023-08-07T10:18:28;100187.88;;;20.92
27986;BMP280;15453;53.692;10.168;2023-08-07T10:20:53;100178.56;;;20.97
27986;BMP280;15453;53.692;10.168;2023-08-07T10:23:20;100181.97;;;21.02
27986;BMP280;15453;53.692;10.168;2023-08-07T10:25:50;100187.84;;;21.09
27986;BMP280;15453;53.692;10.168;2023-08-07T10:28:17;100180.47;;;21.13
27986;BMP280;15453;53.692;10.168;2023-08-07T10:30:44;100181.75;;;21.24
27986;BMP280;15453;53.692;10.168;2023-08-07T10:33:10;100163.22;;;21.28
27986;BMP280;15453;53.692;10.168;2023-08-07T10:35:36;100179.88;;;21.37
27986;BMP280;15453;53.692;10.168;2023-08-07T10:38:11;100165.59;;;21.47
27986;BMP280;15453;53.692;10.168;2023-08-07T10:40:59;100190.28;;;21.57
27986;BMP280;15453;53.692;10.168;2023-08-07T10:43:25;100207.97;;;21.61
27986;BMP280;15453;53.692;10.168;2023-08-07T10:45:50;100176.44;;;21.69
27986;BMP280;15453;53.692;10.168;2023-08-07T10:48:19;100189.75;;;21.72
27986;BMP280;15453;53.692;10.168;2023-08-07T10:53:42;100182.47;;;21.79
27986;BMP280;15453;53.692;10.168;2023-08-07T10:56:17;100191.19;;;21.78
27986;BMP280;15453;53.692;10.168;2023-08-07T10:58:49;100194.78;;;21.78
27986;BMP280;15453;53.692;10.168;2023-08-07T11:03:51;100194.66;;;21.75
27986;BMP280;15453;53.692;10.168;2023-08-07T11:06:19;100182.47;;;21.79
27986;BMP280;15453;53.692;10.168;2023-08-07T11:08:47;100181.63;;;21.87
27986;BMP280;15453;53.692;10.168;2023-08-07T11:11:13;100190.69;;;22.05
27986;BMP280;15453;53.692;10.168;2023-08-07T11:13:38;100190.69;;;22.05
27986;BMP280;15453;53.692;10.168;2023-08-07T11:16:04;100170.97;;;22.10
27986;BMP280;15453;53.692;10.168;2023-08-07T11:18:30;100184.91;;;22.10
27986;BMP280;15453;53.692;10.168;2023-08-07T11:20:56;100180.28;;;22.14
27986;BMP280;15453;53.692;10.168;2023-08-07T11:23:25;100191.25;;;22.19
27986;BMP280;15453;53.692;10.168;2023-08-07T11:25:51;100184.84;;;22.18
27986;BMP280;15453;53.692;10.168;2023-08-07T11:28:20;100201.72;;;22.22
27986;BMP280;15453;53.692;10.168;2023-08-07T11:30:51;100222.75;;;22.20
27986;BMP280;15453;53.692;10.168;2023-08-07T11:33:20;100222.66;;;22.08
27986;BMP280;15453;53.692;10.168;2023-08-07T11:35:46;100235.97;;;22.02
27986;BMP280;15453;53.692;10.168;2023-08-07T11:38:12;100221.41;;;21.96
27986;BMP280;15453;53.692;10.168;2023-08-07T11:40:37;100214.69;;;21.97
27986;BMP280;15453;53.692;10.168;2023-08-07T11:43:03;100180.09;;;21.98
27986;BMP280;15453;53.692;10.168;2023-08-07T11:45:28;100247.00;;;21.98
27986;BMP280;15453;53.692;10.168;2023-08-07T11:47:54;100211.09;;;21.97
27986;BMP280;15453;53.692;10.168;2023-08-07T11:50:22;100223.75;;;21.94
27986;BMP280;15453;53.692;10.168;2023-08-07T11:52:47;100213.88;;;21.97
27986;BMP280;15453;53.692;10.168;2023-08-07T11:55:14;100226.00;;;22.01
27986;BMP280;15453;53.692;10.168;2023-08-07T11:57:40;100226.00;;;22.01
27986;BMP280;15453;53.692;10.168;2023-08-07T12:00:07;100214.69;;;21.97
27986;BMP280;15453;53.692;10.168;2023-08-07T12:02:40;100222.38;;;22.00
27986;BMP280;15453;53.692;10.168;2023-08-07T12:05:08;100227.22;;;22.12
27986;BMP280;15453;53.692;10.168;2023-08-07T12:07:36;100227.22;;;22.12
27986;BMP280;15453;53.692;10.168;2023-08-07T12:10:03;100214.94;;;22.13
27986;BMP280;15453;53.692;10.168;2023-08-07T12:12:32;100231.38;;;22.27
27986;BMP280;15453;53.692;10.168;2023-08-07T12:14:58;100231.38;;;22.27
27986;BMP280;15453;53.692;10.168;2023-08-07T12:17:23;100228.97;;;22.25
27986;BMP280;15453;53.692;10.168;2023-08-07T12:19:50;100247.13;;;22.31
27986;BMP280;15453;53.692;10.168;2023-08-07T12:22:19;100233.84;;;22.28
27986;BMP280;15453;53.692;10.168;2023-08-07T12:24:45;100229.41;;;22.27
27986;BMP280;15453;53.692;10.168;2023-08-07T12:27:10;100245.69;;;22.25
27986;BMP280;15453;53.692;10.168;2023-08-07T12:29:35;100236.84;;;22.23
27986;BMP280;15453;53.692;10.168;2023-08-07T12:32:01;100237.47;;;22.29
27986;BMP280;15453;53.692;10.168;2023-08-07T12:34:28;100243.72;;;22.26
27986;BMP280;15453;53.692;10.168;2023-08-07T12:36:53;100244.03;;;22.24
27986;BMP280;15453;53.692;10.168;2023-08-07T12:39:19;100283.09;;;22.24
27986;BMP280;15453;53.692;10.168;2023-08-07T12:41:46;100283.09;;;22.24
27986;BMP280;15453;53.692;10.168;2023-08-07T12:44:11;100250.84;;;22.15
27986;BMP280;15453;53.692;10.168;2023-08-07T12:46:37;100255.63;;;22.05
27986;BMP280;15453;53.692;10.168;2023-08-07T12:49:03;100266.56;;;21.90
27986;BMP280;15453;53.692;10.168;2023-08-07T12:51:29;100266.56;;;21.90
27986;BMP280;15453;53.692;10.168;2023-08-07T12:53:54;100268.38;;;21.86
27986;BMP280;15453;53.692;10.168;2023-08-07T12:56:20;100272.13;;;21.90
27986;BMP280;15453;53.692;10.168;2023-08-07T12:58:45;100275.56;;;21.95
27986;BMP280;15453;53.692;10.168;2023-08-07T13:01:12;100264.19;;;22.00
27986;BMP280;15453;53.692;10.168;2023-08-07T13:03:39;100264.19;;;22.00
27986;BMP280;15453;53.692;10.168;2023-08-07T13:06:04;100267.81;;;22.01
27986;BMP280;15453;53.692;10.168;2023-08-07T13:08:32;100264.84;;;22.06
27986;BMP280;15453;53.692;10.168;2023-08-07T13:10:58;100255.41;;;22.19
27986;BMP280;15453;53.692;10.168;2023-08-07T13:13:23;100255.41;;;22.19
27986;BMP280;15453;53.692;10.168;2023-08-07T13:15:49;100281.75;;;22.30
27986;BMP280;15453;53.692;10.168;2023-08-07T13:18:14;100262.66;;;22.41
27986;BMP280;15453;53.692;10.168;2023-08-07T13:20:41;100262.66;;;22.41
27986;BMP280;15453;53.692;10.168;2023-08-07T13:23:07;100251.09;;;22.51
27986;BMP280;15453;53.692;10.168;2023-08-07T13:25:32;100273.59;;;22.54
27986;BMP280;15453;53.692;10.168;2023-08-07T13:27:57;100264.66;;;22.61
27986;BMP280;15453;53.692;10.168;2023-08-07T13:30:23;100280.25;;;22.62
27986;BMP280;15453;53.692;10.168;2023-08-07T13:32:48;100290.75;;;22.65
27986;BMP280;15453;53.692;10.168;2023-08-07T13:35:14;100291.75;;;22.60
27986;BMP280;15453;53.692;10.168;2023-08-07T13:37:39;100302.97;;;22.52
27986;BMP280;15453;53.692;10.168;2023-08-07T13:40:06;100302.97;;;22.52
27986;BMP280;15453;53.692;10.168;2023-08-07T13:42:32;100299.88;;;22.45
27986;BMP280;15453;53.692;10.168;2023-08-07T13:44:58;100293.53;;;22.36
27986;BMP280;15453;53.692;10.168;2023-08-07T13:47:23;100299.78;;;22.33